Time;durP1;ratioP1;P1;durP2;ratioP2;P2;SDS_P1;SDS_P2;PMS_P1;PMS_P2;Temp;Humidity;BMP_temperature;BMP_pressure;BME280_temperature;BME280_humidity;BME280_pressure;Samples;Min_cycle;Max_cycle;Signal;HPM_P1;HPM_P2
2023/12/28 00:01:13;;;;;;;4.60;3.22;;;;;;;-146.58;100.00;69501.63;5036628;28;20021;-64
2023/12/28 00:03:40;;;;;;;5.25;2.78;;;;;;;-146.58;100.00;69501.63;5053006;28;20024;-64
2023/12/28 00:06:06;;;;;;;3.05;2.85;;;;;;;-146.58;100.00;69501.63;5019236;28;20537;-64
2023/12/28 00:08:32;;;;;;;6.35;3.72;;;;;;;-146.58;100.00;69501.63;5012888;28;20091;-64
2023/12/28 00:10:57;;;;;;;5.22;4.10;;;;;;;-146.58;100.00;69501.63;5032124;28;20469;-64
2023/12/28 00:13:23;;;;;;;4.07;3.22;;;;;;;-146.58;100.00;69501.63;5050990;28;20036;-64
2023/12/28 00:15:48;;;;;;;4.82;3.92;;;;;;;-146.58;100.00;69501.63;5051211;28;20044;-64
2023/12/28 00:18:13;;;;;;;5.63;2.80;;;;;;;-146.58;100.00;69501.63;5053104;28;20033;-64
2023/12/28 00:20:39;;;;;;;9.02;4.85;;;;;;;-146.58;100.00;69501.63;5048890;28;20455;-63
2023/12/28 00:23:06;;;;;;;2.92;2.72;;;;;;;-146.58;100.00;69501.63;5033107;28;20041;-64
2023/12/28 00:25:31;;;;;;;3.45;3.15;;;;;;;-146.58;100.00;69501.63;5031134;28;20049;-64
2023/12/28 00:27:56;;;;;;;3.50;3.05;;;;;;;-146.58;100.00;69501.63;5033272;28;20503;-64
2023/12/28 00:30:22;;;;;;;4.03;3.72;;;;;;;-146.58;100.00;69501.63;5031401;28;20046;-64
2023/12/28 00:32:47;;;;;;;4.38;3.50;;;;;;;-146.58;100.00;69501.63;5049509;28;20032;-63
2023/12/28 00:35:13;;;;;;;4.43;4.03;;;;;;;-146.58;100.00;69501.63;5050164;28;20045;-64
2023/12/28 00:37:38;;;;;;;3.97;2.90;;;;;;;-146.58;100.00;69501.63;5052200;28;20044;-64
2023/12/28 00:40:04;;;;;;;6.75;4.53;;;;;;;-146.58;100.00;69501.63;5051536;28;20049;-64
2023/12/28 00:42:30;;;;;;;3.38;3.08;;;;;;;-146.58;100.00;69501.63;5038668;28;20034;-64
2023/12/28 00:44:55;;;;;;;3.70;3.35;;;;;;;-146.58;100.00;69501.63;5031137;28;20524;-63
2023/12/28 00:47:21;;;;;;;4.10;3.72;;;;;;;-146.58;100.00;69501.63;5032799;28;20503;-64
2023/12/28 00:49:46;;;;;;;8.02;3.47;;;;;;;-146.58;100.00;69501.63;5031493;28;20038;-64
2023/12/28 00:52:12;;;;;;;4.28;3.72;;;;;;;-146.58;100.00;69501.63;5043518;28;20028;-63
2023/12/28 00:54:37;;;;;;;4.60;4.10;;;;;;;-146.58;100.00;69501.63;5035003;28;20505;-64
2023/12/28 00:57:03;;;;;;;4.22;3.50;;;;;;;-146.58;100.00;69501.63;5032679;28;20036;-63
2023/12/28 00:59:29;;;;;;;10.77;3.47;;;;;;;-146.58;100.00;69501.63;5035848;28;20041;-63
2023/12/28 01:01:55;;;;;;;4.38;3.78;;;;;;;-146.58;100.00;69501.63;5044081;28;20381;-63
2023/12/28 01:04:23;;;;;;;3.78;3.35;;;;;;;-146.58;100.00;69501.63;5031149;28;20038;-64
2023/12/28 01:06:49;;;;;;;4.85;3.83;;;;;;;-146.58;100.00;69501.63;5032370;28;20373;-64
2023/12/28 01:09:14;;;;;;;7.28;3.65;;;;;;;-146.58;100.00;69501.63;5029882;28;20042;-65
2023/12/28 01:11:39;;;;;;;4.03;3.72;;;;;;;-146.58;100.00;69501.63;5038373;28;20044;-65
2023/12/28 01:14:05;;;;;;;4.47;3.28;;;;;;;-146.58;100.00;69501.63;5050394;28;20044;-64
2023/12/28 01:16:30;;;;;;;6.53;3.85;;;;;;;-146.58;100.00;69501.63;5052157;28;20052;-65
2023/12/28 01:18:55;;;;;;;4.97;4.57;;;;;;;-146.58;100.00;69501.63;5050705;28;20017;-65
2023/12/28 01:21:21;;;;;;;4.80;3.58;;;;;;;-146.58;100.00;69501.63;5048881;28;20020;-65
2023/12/28 01:23:46;;;;;;;4.13;3.83;;;;;;;-146.58;100.00;69501.63;5050561;28;20032;-65
2023/12/28 01:26:16;;;;;;;3.38;3.05;;;;;;;-146.58;100.00;69501.63;5051951;28;20185;-65
2023/12/28 01:28:42;;;;;;;4.78;3.35;;;;;;;-146.58;100.00;69501.63;5034806;28;20100;-65
2023/12/28 01:31:08;;;;;;;3.72;3.17;;;;;;;-146.58;100.00;69501.63;5033440;28;20021;-65
2023/12/28 01:33:33;;;;;;;5.30;3.40;;;;;;;-146.58;100.00;69501.63;5051937;28;20119;-65
2023/12/28 01:35:59;;;;;;;6.57;5.95;;;;;;;-146.58;100.00;69501.63;5050210;28;20037;-65
2023/12/28 01:38:24;;;;;;;4.03;3.72;;;;;;;-146.58;100.00;69501.63;5033857;28;20424;-65
2023/12/28 01:40:49;;;;;;;5.20;4.25;;;;;;;-146.58;100.00;69501.63;5043085;28;20045;-65
2023/12/28 01:43:15;;;;;;;4.03;3.58;;;;;;;-146.58;100.00;69501.63;5032274;28;20034;-64
2023/12/28 01:45:40;;;;;;;5.53;4.60;;;;;;;-146.58;100.00;69501.63;5029938;28;20041;-65
2023/12/28 01:48:06;;;;;;;5.72;3.60;;;;;;;-146.58;100.00;69501.63;5031946;28;20472;-65
2023/12/28 01:50:31;;;;;;;3.78;3.22;;;;;;;-146.58;100.00;69501.63;5029622;28;20045;-66
2023/12/28 01:53:00;;;;;;;3.42;3.13;;;;;;;-146.58;100.00;69501.63;5047417;28;20082;-65
2023/12/28 01:55:27;;;;;;;4.40;3.65;;;;;;;-146.58;100.00;69501.63;5049763;28;20045;-65
2023/12/28 01:57:53;;;;;;;7.45;3.85;;;;;;;-146.58;100.00;69501.63;5051199;28;20067;-65
2023/12/28 02:00:21;;;;;;;11.23;4.13;;;;;;;-146.58;100.00;69501.63;5049667;28;20411;-65
2023/12/28 02:02:47;;;;;;;4.47;3.90;;;;;;;-146.58;100.00;69501.63;5036634;28;20480;-66
2023/12/28 02:05:14;;;;;;;10.70;5.55;;;;;;;-146.58;100.00;69501.63;5029364;28;21025;-66
2023/12/28 02:07:39;;;;;;;7.93;5.15;;;;;;;-146.58;100.00;69501.63;5031473;28;20036;-66
2023/12/28 02:10:05;;;;;;;5.10;3.70;;;;;;;-146.58;100.00;69501.63;5029977;28;20429;-66
2023/12/28 02:12:31;;;;;;;6.75;5.28;;;;;;;-146.58;100.00;69501.63;5042912;28;20124;-66
2023/12/28 02:14:57;;;;;;;5.57;5.07;;;;;;;-146.58;100.00;69501.63;5049704;28;20094;-66
2023/12/28 02:17:34;;;;;;;4.70;3.55;;;;;;;-146.58;100.00;69501.63;5042633;28;20481;-66
2023/12/28 02:20:00;;;;;;;4.82;4.35;;;;;;;-146.58;100.00;69501.63;5029277;28;20107;-65
2023/12/28 02:22:27;;;;;;;5.25;4.25;;;;;;;-146.58;100.00;69501.63;5041812;28;20052;-65
2023/12/28 02:25:06;;;;;;;7.80;4.28;;;;;;;-146.58;100.00;69501.63;5029216;28;20099;-66
2023/12/28 02:27:39;;;;;;;7.25;4.88;;;;;;;-146.58;100.00;69501.63;5030923;28;20021;-66
2023/12/28 02:30:07;;;;;;;4.15;3.78;;;;;;;-146.58;100.00;69501.63;5029647;28;20037;-66
2023/12/28 02:32:58;;;;;;;4.97;4.57;;;;;;;-146.58;100.00;69501.63;5030947;28;20025;-65
2023/12/28 02:35:49;;;;;;;7.00;5.43;;;;;;;-146.58;100.00;69501.63;5029011;28;20061;-65
2023/12/28 02:38:16;;;;;;;11.02;4.65;;;;;;;-146.58;100.00;69501.63;5027816;28;20488;-65
2023/12/28 02:40:43;;;;;;;4.32;3.92;;;;;;;-146.58;100.00;69501.63;5029428;28;20052;-64
2023/12/28 02:43:10;;;;;;;5.10;4.70;;;;;;;-146.58;100.00;69501.63;5046653;28;20480;-65
2023/12/28 02:45:37;;;;;;;7.00;5.18;;;;;;;-146.58;100.00;69501.63;5041441;28;20048;-64
2023/12/28 02:48:03;;;;;;;8.95;4.43;;;;;;;-146.58;100.00;69501.63;5050940;28;20481;-65
2023/12/28 02:50:31;;;;;;;8.40;5.10;;;;;;;-146.58;100.00;69501.63;5036642;28;20045;-65
2023/12/28 02:52:56;;;;;;;4.57;3.90;;;;;;;-146.58;100.00;69501.63;5045476;28;20032;-66
2023/12/28 02:55:22;;;;;;;4.47;4.03;;;;;;;-146.58;100.00;69501.63;5048998;28;20041;-66
2023/12/28 02:57:49;;;;;;;8.25;5.53;;;;;;;-146.58;100.00;69501.63;5050340;28;20362;-66
2023/12/28 03:00:15;;;;;;;6.60;3.95;;;;;;;-146.58;100.00;69501.63;5048938;28;20041;-66
2023/12/28 03:02:40;;;;;;;7.72;4.78;;;;;;;-146.58;100.00;69501.63;5038542;28;20826;-66
2023/12/28 03:05:06;;;;;;;6.13;4.65;;;;;;;-146.58;100.00;69501.63;5028623;28;20044;-67
2023/12/28 03:07:32;;;;;;;4.65;4.25;;;;;;;-146.58;100.00;69501.63;5030554;28;20543;-66
2023/12/28 03:09:58;;;;;;;7.68;4.88;;;;;;;-146.58;100.00;69501.63;5029388;28;20520;-66
2023/12/28 03:12:23;;;;;;;5.20;4.72;;;;;;;-146.58;100.00;69501.63;5036584;28;20017;-66
2023/12/28 03:14:49;;;;;;;7.05;4.00;;;;;;;-146.58;100.00;69501.63;5028981;28;20042;-66
2023/12/28 03:17:14;;;;;;;4.20;3.80;;;;;;;-146.58;100.00;69501.63;5030844;28;20032;-66
2023/12/28 03:19:40;;;;;;;3.97;3.58;;;;;;;-146.58;100.00;69501.63;5028403;28;20034;-66
2023/12/28 03:22:05;;;;;;;7.50;4.90;;;;;;;-146.58;100.00;69501.63;5037256;28;20035;-66
2023/12/28 03:24:31;;;;;;;5.35;4.93;;;;;;;-146.58;100.00;69501.63;5048736;28;20045;-65
2023/12/28 03:26:56;;;;;;;9.20;4.78;;;;;;;-146.58;100.00;69501.63;5044046;28;20503;-66
2023/12/28 03:29:21;;;;;;;6.43;4.57;;;;;;;-146.58;100.00;69501.63;5029141;28;20041;-65
2023/12/28 03:31:47;;;;;;;5.13;4.13;;;;;;;-146.58;100.00;69501.63;5031719;28;20017;-65
2023/12/28 03:34:12;;;;;;;8.48;4.20;;;;;;;-146.58;100.00;69501.63;5032376;28;20523;-66
2023/12/28 03:36:37;;;;;;;10.02;6.57;;;;;;;-146.58;100.00;69501.63;5033825;28;20057;-66
2023/12/28 03:39:06;;;;;;;9.45;4.63;;;;;;;-146.58;100.00;69501.63;5033151;28;20038;-66
2023/12/28 03:41:31;;;;;;;6.05;4.53;;;;;;;-146.58;100.00;69501.63;5033464;28;20549;-66
2023/12/28 03:43:57;;;;;;;4.82;4.32;;;;;;;-146.58;100.00;69501.63;5032658;28;20120;-66
2023/12/28 03:46:22;;;;;;;5.35;4.30;;;;;;;-146.58;100.00;69501.63;5043978;28;20458;-66
2023/12/28 03:48:48;;;;;;;4.90;4.43;;;;;;;-146.58;100.00;69501.63;5052021;28;20546;-66
2023/12/28 03:51:15;;;;;;;6.88;5.28;;;;;;;-146.58;100.00;69501.63;5053882;28;20029;-66
2023/12/28 03:53:40;;;;;;;6.80;5.38;;;;;;;-146.58;100.00;69501.63;5033095;28;20520;-66
2023/12/28 03:56:06;;;;;;;5.38;4.88;;;;;;;-146.58;100.00;69501.63;5033442;28;20017;-65
2023/12/28 03:58:31;;;;;;;12.48;5.10;;;;;;;-146.58;100.00;69501.63;5033599;28;20112;-66
2023/12/28 04:00:56;;;;;;;9.80;4.22;;;;;;;-146.58;100.00;69501.63;5032335;28;20038;-66
2023/12/28 04:03:22;;;;;;;7.55;4.90;;;;;;;-146.58;100.00;69501.63;5034222;28;20037;-66
2023/12/28 04:05:47;;;;;;;6.10;4.82;;;;;;;-146.58;100.00;69501.63;5032226;28;20041;-66
2023/12/28 04:08:13;;;;;;;5.72;4.82;;;;;;;-146.58;100.00;69501.63;5033428;28;20032;-66
2023/12/28 04:10:38;;;;;;;5.50;5.00;;;;;;;-146.58;100.00;69501.63;5031735;28;20099;-66
2023/12/28 04:13:04;;;;;;;6.32;5.55;;;;;;;-146.58;100.00;69501.63;5033710;28;20029;-66
2023/12/28 04:15:30;;;;;;;4.45;3.55;;;;;;;-146.58;100.00;69501.63;5031857;28;20404;-66
2023/12/28 04:17:56;;;;;;;8.43;5.20;;;;;;;-146.58;100.00;69501.63;5033649;28;20025;-66
2023/12/28 04:20:21;;;;;;;6.55;4.43;;;;;;;-146.58;100.00;69501.63;5031486;28;20509;-66
2023/12/28 04:22:47;;;;;;;8.45;4.40;;;;;;;-146.58;100.00;69501.63;5044127;28;20028;-66
2023/12/28 04:25:13;;;;;;;9.15;5.32;;;;;;;-146.58;100.00;69501.63;5051734;28;20045;-66
2023/12/28 04:27:39;;;;;;;11.15;4.55;;;;;;;-146.58;100.00;69501.63;5053051;28;20025;-65
2023/12/28 04:30:05;;;;;;;8.68;4.65;;;;;;;-146.58;100.00;69501.63;5051605;28;20044;-64
2023/12/28 04:32:33;;;;;;;7.15;5.65;;;;;;;-146.58;100.00;69501.63;5044098;28;20029;-65
2023/12/28 04:34:58;;;;;;;7.65;5.03;;;;;;;-146.58;100.00;69501.63;5031583;28;20121;-65
2023/12/28 04:37:26;;;;;;;6.45;5.10;;;;;;;-146.58;100.00;69501.63;5032583;28;20052;-65
2023/12/28 04:39:52;;;;;;;17.33;5.10;;;;;;;-146.58;100.00;69501.63;5035552;28;20037;-65
2023/12/28 04:42:18;;;;;;;4.63;4.10;;;;;;;-146.58;100.00;69501.63;5045398;28;20612;-65
2023/12/28 04:44:43;;;;;;;5.80;5.00;;;;;;;-146.58;100.00;69501.63;5030975;28;20124;-64
2023/12/28 04:47:09;;;;;;;5.53;4.45;;;;;;;-146.58;100.00;69501.63;5032872;28;20036;-65
2023/12/28 04:49:34;;;;;;;7.13;4.53;;;;;;;-146.58;100.00;69501.63;5054896;28;20038;-66
2023/12/28 04:52:00;;;;;;;7.35;5.82;;;;;;;-146.58;100.00;69501.63;5016531;28;20022;-65
2023/12/28 04:54:25;;;;;;;5.45;3.88;;;;;;;-146.58;100.00;69501.63;5031015;28;20029;-65
2023/12/28 04:56:51;;;;;;;7.57;4.30;;;;;;;-146.58;100.00;69501.63;5032339;28;20081;-64
2023/12/28 04:59:16;;;;;;;7.90;5.32;;;;;;;-146.58;100.00;69501.63;5031178;28;20052;-63
2023/12/28 05:01:44;;;;;;;14.07;5.18;;;;;;;-146.58;100.00;69501.63;5030519;28;20388;-64
2023/12/28 05:04:11;;;;;;;12.05;5.53;;;;;;;-146.58;100.00;69501.63;5010830;28;20133;-66
2023/12/28 05:06:36;;;;;;;5.57;3.67;;;;;;;-146.58;100.00;69501.63;5029065;28;20037;-66
2023/12/28 05:09:02;;;;;;;8.30;6.20;;;;;;;-146.58;100.00;69501.63;5017858;28;20421;-66
2023/12/28 05:11:27;;;;;;;5.40;3.42;;;;;;;-146.58;100.00;69501.63;5012293;28;20029;-66
2023/12/28 05:13:53;;;;;;;14.95;5.10;;;;;;;-146.58;100.00;69501.63;5010788;28;20033;-64
2023/12/28 05:16:19;;;;;;;6.72;4.22;;;;;;;-146.58;100.00;69501.63;5012731;28;20053;-64
2023/12/28 05:18:45;;;;;;;8.75;4.22;;;;;;;-146.58;100.00;69501.63;5010952;28;20377;-64
2023/12/28 05:21:12;;;;;;;8.27;5.03;;;;;;;-146.58;100.00;69501.63;5012666;28;20017;-65
2023/12/28 05:23:37;;;;;;;10.75;5.93;;;;;;;-146.58;100.00;69501.63;5011990;28;20109;-62
2023/12/28 05:26:02;;;;;;;8.98;4.68;;;;;;;-146.58;100.00;69501.63;5011794;28;20489;-64
2023/12/28 05:28:28;;;;;;;8.48;6.32;;;;;;;-146.58;100.00;69501.63;5012175;28;20030;-65
2023/12/28 05:30:53;;;;;;;5.05;4.07;;;;;;;-146.58;100.00;69501.63;5011084;28;20041;-64
2023/12/28 05:33:19;;;;;;;5.03;3.72;;;;;;;-146.58;100.00;69501.63;5024957;28;20025;-64
2023/12/28 05:35:44;;;;;;;7.28;4.60;;;;;;;-146.58;100.00;69501.63;5023466;28;20584;-64
2023/12/28 05:38:09;;;;;;;6.60;4.10;;;;;;;-146.58;100.00;69501.63;5012175;28;20046;-65
2023/12/28 05:40:35;;;;;;;7.97;4.43;;;;;;;-146.58;100.00;69501.63;5010114;28;20041;-64
2023/12/28 05:43:00;;;;;;;6.68;4.82;;;;;;;-146.58;100.00;69501.63;5021120;28;20033;-64
2023/12/28 05:45:25;;;;;;;6.80;4.43;;;;;;;-146.58;100.00;69501.63;5012833;28;20115;-65
2023/12/28 05:47:51;;;;;;;4.97;4.20;;;;;;;-146.58;100.00;69501.63;5031057;28;20025;-64
2023/12/28 05:50:16;;;;;;;7.50;4.20;;;;;;;-146.58;100.00;69501.63;5029325;28;20038;-65
2023/12/28 05:52:42;;;;;;;8.63;4.38;;;;;;;-146.58;100.00;69501.63;5021602;28;20218;-64
2023/12/28 05:55:08;;;;;;;10.95;4.65;;;;;;;-146.58;100.00;69501.63;5009036;28;20034;-65
2023/12/28 05:57:33;;;;;;;7.63;4.15;;;;;;;-146.58;100.00;69501.63;5011474;28;20034;-65
2023/12/28 05:59:58;;;;;;;7.40;5.60;;;;;;;-146.58;100.00;69501.63;5009073;28;20401;-65
2023/12/28 06:02:24;;;;;;;9.77;4.22;;;;;;;-146.58;100.00;69501.63;5011663;28;20021;-65
2023/12/28 06:04:49;;;;;;;7.57;4.43;;;;;;;-146.58;100.00;69501.63;5009880;28;20387;-65
2023/12/28 06:07:15;;;;;;;7.40;3.97;;;;;;;-146.58;100.00;69501.63;5010033;28;20030;-65
2023/12/28 06:09:40;;;;;;;8.40;4.03;;;;;;;-146.58;100.00;69501.63;5009497;28;20038;-65
2023/12/28 06:12:06;;;;;;;10.13;3.80;;;;;;;-146.58;100.00;69501.63;5010780;28;20053;-67
2023/12/28 06:14:31;;;;;;;6.47;5.00;;;;;;;-146.58;100.00;69501.63;5014257;28;20038;-67
2023/12/28 06:16:56;;;;;;;13.23;5.78;;;;;;;-146.58;100.00;69501.63;5019054;28;20041;-67
2023/12/28 06:19:22;;;;;;;7.10;3.75;;;;;;;-146.58;100.00;69501.63;5008779;28;20049;-67
2023/12/28 06:21:48;;;;;;;7.88;5.57;;;;;;;-146.58;100.00;69501.63;5009215;28;20026;-66
2023/12/28 06:24:13;;;;;;;7.50;4.25;;;;;;;-146.58;100.00;69501.63;5008144;28;20046;-67
2023/12/28 06:26:43;;;;;;;10.02;4.38;;;;;;;-146.58;100.00;69501.63;5010243;28;20377;-67
2023/12/28 06:29:09;;;;;;;13.32;4.93;;;;;;;-146.58;100.00;69501.63;5005855;28;20413;-66
2023/12/28 06:31:36;;;;;;;9.57;4.05;;;;;;;-146.58;100.00;69501.63;5010114;28;20559;-63
2023/12/28 06:34:05;;;;;;;9.30;3.70;;;;;;;-146.58;100.00;69501.63;5009897;28;20491;-63
2023/12/28 06:36:31;;;;;;;8.23;5.72;;;;;;;-146.58;100.00;69501.63;5009511;28;20029;-62
2023/12/28 06:38:57;;;;;;;11.93;5.00;;;;;;;-146.58;100.00;69501.63;5009270;28;20075;-63
2023/12/28 06:41:22;;;;;;;7.97;3.08;;;;;;;-146.58;100.00;69501.63;5010503;28;20513;-63
2023/12/28 06:43:48;;;;;;;8.23;3.90;;;;;;;-146.58;100.00;69501.63;5008468;28;20034;-63
2023/12/28 06:46:13;;;;;;;7.63;4.22;;;;;;;-146.58;100.00;69501.63;5010104;28;20026;-63
2023/12/28 06:48:40;;;;;;;9.10;3.88;;;;;;;-146.58;100.00;69501.63;5009128;28;20027;-62
2023/12/28 06:51:06;;;;;;;7.60;3.80;;;;;;;-146.58;100.00;69501.63;5009848;28;20080;-63
2023/12/28 06:53:31;;;;;;;9.20;4.88;;;;;;;-146.58;100.00;69501.63;5023196;28;20033;-63
2023/12/28 06:55:57;;;;;;;13.85;6.50;;;;;;;-146.58;100.00;69501.63;5028756;28;20029;-62
2023/12/28 06:58:22;;;;;;;6.75;4.47;;;;;;;-146.58;100.00;69501.63;5018140;28;20033;-63
2023/12/28 07:00:48;;;;;;;14.50;4.40;;;;;;;-146.58;100.00;69501.63;5009062;28;20045;-63
2023/12/28 07:03:13;;;;;;;8.48;4.13;;;;;;;-146.58;100.00;69501.63;5020080;28;20045;-63
2023/12/28 07:05:39;;;;;;;13.65;6.47;;;;;;;-146.58;100.00;69501.63;5028097;28;20042;-63
2023/12/28 07:08:05;;;;;;;11.38;4.20;;;;;;;-146.58;100.00;69501.63;5034357;28;20033;-63
2023/12/28 07:10:30;;;;;;;10.65;3.38;;;;;;;-146.58;100.00;69501.63;5020572;28;20045;-62
2023/12/28 07:12:56;;;;;;;11.38;4.57;;;;;;;-146.58;100.00;69501.63;5020759;28;20083;-63
2023/12/28 07:15:21;;;;;;;16.63;4.22;;;;;;;-146.58;100.00;69501.63;5032047;28;20030;-63
2023/12/28 07:17:46;;;;;;;10.50;3.90;;;;;;;-146.58;100.00;69501.63;5013742;28;20037;-63
2023/12/28 07:20:12;;;;;;;21.10;4.97;;;;;;;-146.58;100.00;69501.63;5010913;28;20362;-63
2023/12/28 07:22:38;;;;;;;7.65;4.40;;;;;;;-146.58;100.00;69501.63;5018008;28;20060;-63
2023/12/28 07:25:06;;;;;;;8.20;3.33;;;;;;;-146.58;100.00;69501.63;5021424;28;20042;-63
2023/12/28 07:27:33;;;;;;;9.35;4.50;;;;;;;-146.58;100.00;69501.63;5018186;28;20432;-63
2023/12/28 07:29:58;;;;;;;11.35;4.55;;;;;;;-146.58;100.00;69501.63;5012336;28;20034;-63
2023/12/28 07:32:25;;;;;;;12.52;4.20;;;;;;;-146.58;100.00;69501.63;5013973;28;20032;-62
2023/12/28 07:34:54;;;;;;;14.57;5.20;;;;;;;-146.58;100.00;69501.63;5011561;28;20497;-63
2023/12/28 07:37:20;;;;;;;8.57;4.28;;;;;;;-146.58;100.00;69501.63;5013651;28;20057;-63
2023/12/28 07:39:46;;;;;;;12.65;4.60;;;;;;;-146.58;100.00;69501.63;5011198;28;20033;-62
2023/12/28 07:42:12;;;;;;;11.88;5.32;;;;;;;-146.58;100.00;69501.63;5021221;28;20049;-62
2023/12/28 07:44:37;;;;;;;10.88;5.30;;;;;;;-146.58;100.00;69501.63;5031924;28;20034;-62
2023/12/28 07:47:03;;;;;;;30.13;5.40;;;;;;;-146.58;100.00;69501.63;5023206;28;20057;-62
2023/12/28 07:49:30;;;;;;;13.32;5.65;;;;;;;-146.58;100.00;69501.63;5012169;28;20061;-62
2023/12/28 07:51:56;;;;;;;7.00;4.40;;;;;;;-146.58;100.00;69501.63;5013503;28;20037;-62
2023/12/28 07:54:21;;;;;;;11.85;4.00;;;;;;;-146.58;100.00;69501.63;5010656;28;20042;-62
2023/12/28 07:56:47;;;;;;;13.38;5.90;;;;;;;-146.58;100.00;69501.63;5012536;28;20393;-62
2023/12/28 07:59:12;;;;;;;12.68;5.00;;;;;;;-146.58;100.00;69501.63;5012001;28;20406;-62
2023/12/28 08:01:37;;;;;;;19.52;5.78;;;;;;;-146.58;100.00;69501.63;5016580;28;20030;-62
2023/12/28 08:04:03;;;;;;;11.13;4.50;;;;;;;-146.58;100.00;69501.63;5026635;28;20103;-62
2023/12/28 08:06:32;;;;;;;9.90;4.65;;;;;;;-146.58;100.00;69501.63;5033027;28;20070;-62
2023/12/28 08:08:59;;;;;;;;;;;;;;;-146.58;100.00;69501.63;5032022;28;20041;-62
2023/12/28 08:11:24;;;;;;;13.82;5.65;;;;;;;-146.58;100.00;69501.63;5022786;28;19921;-62
2023/12/28 08:13:50;;;;;;;12.00;3.70;;;;;;;-146.58;100.00;69501.63;5018354;28;20029;-62
2023/12/28 08:16:15;;;;;;;12.57;5.05;;;;;;;-146.58;100.00;69501.63;5012978;28;20088;-62
2023/12/28 08:18:40;;;;;;;10.80;4.22;;;;;;;-146.58;100.00;69501.63;5010287;28;20540;-62
2023/12/28 08:21:06;;;;;;;10.32;4.63;;;;;;;-146.58;100.00;69501.63;5012759;28;20030;-62
2023/12/28 08:23:31;;;;;;;15.32;6.20;;;;;;;-146.58;100.00;69501.63;5010917;28;20029;-62
2023/12/28 08:25:56;;;;;;;12.68;5.50;;;;;;;-146.58;100.00;69501.63;5009528;28;20049;-62
2023/12/28 08:28:23;;;;;;;15.75;4.88;;;;;;;-146.58;100.00;69501.63;5010941;28;20021;-62
2023/12/28 08:30:48;;;;;;;10.30;4.35;;;;;;;-146.58;100.00;69501.63;5009618;28;20052;-62
2023/12/28 08:33:14;;;;;;;11.82;5.20;;;;;;;-146.58;100.00;69501.63;5011166;28;20025;-62
2023/12/28 08:35:39;;;;;;;15.50;5.28;;;;;;;-146.58;100.00;69501.63;5011514;28;20100;-62
2023/12/28 08:38:06;;;;;;;17.15;4.05;;;;;;;-146.58;100.00;69501.63;5012471;28;20049;-62
2023/12/28 08:40:31;;;;;;;7.22;5.03;;;;;;;-146.58;100.00;69501.63;5012727;28;20528;-62
2023/12/28 08:42:57;;;;;;;11.10;3.83;;;;;;;-146.58;100.00;69501.63;5032923;28;20022;-61
2023/12/28 08:45:22;;;;;;;14.02;4.95;;;;;;;-146.58;100.00;69501.63;5030418;28;20103;-62
2023/12/28 08:47:48;;;;;;;22.73;6.03;;;;;;;-146.58;100.00;69501.63;5025719;28;20508;-62
2023/12/28 08:50:13;;;;;;;11.45;4.15;;;;;;;-146.58;100.00;69501.63;5011695;28;20045;-62
2023/12/28 08:52:38;;;;;;;16.67;6.03;;;;;;;-146.58;100.00;69501.63;5014624;28;20030;-62
2023/12/28 08:55:05;;;;;;;11.32;5.10;;;;;;;-146.58;100.00;69501.63;5011186;28;20095;-62
2023/12/28 08:57:31;;;;;;;15.15;4.82;;;;;;;-146.58;100.00;69501.63;5012461;28;20056;-62
2023/12/28 08:59:56;;;;;;;15.70;4.45;;;;;;;-146.58;100.00;69501.63;5010823;28;20042;-62
2023/12/28 09:02:22;;;;;;;14.57;5.65;;;;;;;-146.58;100.00;69501.63;5025677;28;20550;-62
2023/12/28 09:04:48;;;;;;;11.77;4.35;;;;;;;-146.58;100.00;69501.63;5010301;28;20409;-62
2023/12/28 09:07:14;;;;;;;13.63;3.60;;;;;;;-146.58;100.00;69501.63;5010972;28;20030;-62
2023/12/28 09:09:39;;;;;;;16.05;4.60;;;;;;;-146.58;100.00;69501.63;5010438;28;20122;-62
2023/12/28 09:12:05;;;;;;;23.23;5.40;;;;;;;-146.58;100.00;69501.63;5017433;28;20027;-62
2023/12/28 09:14:30;;;;;;;11.15;4.70;;;;;;;-146.58;100.00;69501.63;5010366;28;20139;-62
2023/12/28 09:16:56;;;;;;;12.55;4.63;;;;;;;-146.58;100.00;69501.63;5012339;28;20029;-62
2023/12/28 09:19:22;;;;;;;12.27;4.50;;;;;;;-146.58;100.00;69501.63;5010519;28;20502;-62
2023/12/28 09:21:48;;;;;;;15.18;4.82;;;;;;;-146.58;100.00;69501.63;5020195;28;20045;-62
2023/12/28 09:24:14;;;;;;;13.05;6.38;;;;;;;-146.58;100.00;69501.63;5030454;28;20034;-62
2023/12/28 09:26:41;;;;;;;16.38;4.57;;;;;;;-146.58;100.00;69501.63;5031718;28;20025;-62
2023/12/28 09:29:06;;;;;;;16.73;3.92;;;;;;;-146.58;100.00;69501.63;5029036;28;20556;-61
2023/12/28 09:31:32;;;;;;;18.48;4.28;;;;;;;-146.58;100.00;69501.63;5024895;28;20036;-61
2023/12/28 09:33:58;;;;;;;23.27;7.60;;;;;;;-146.58;100.00;69501.63;5010816;28;20494;-61
2023/12/28 09:36:23;;;;;;;23.90;6.57;;;;;;;-146.58;100.00;69501.63;5011242;28;20037;-61
2023/12/28 09:38:48;;;;;;;17.02;5.15;;;;;;;-146.58;100.00;69501.63;5010893;28;20021;-61
2023/12/28 09:41:16;;;;;;;34.80;7.10;;;;;;;-146.58;100.00;69501.63;5015662;28;20435;-62
2023/12/28 09:43:58;;;;;;;13.98;4.53;;;;;;;-146.58;100.00;69501.63;5018894;28;20033;-61
2023/12/28 09:46:26;;;;;;;10.93;4.93;;;;;;;-146.58;100.00;69501.63;5016045;28;20030;-62
2023/12/28 09:48:53;;;;;;;24.37;7.47;;;;;;;-146.58;100.00;69501.63;5010545;28;20100;-61
2023/12/28 09:51:19;;;;;;;27.55;5.15;;;;;;;-146.58;100.00;69501.63;5013538;28;20037;-62
2023/12/28 09:53:45;;;;;;;14.80;4.63;;;;;;;-146.58;100.00;69501.63;5026555;28;20087;-61
2023/12/28 09:56:12;;;;;;;29.13;5.50;;;;;;;-146.58;100.00;69501.63;5011155;28;20018;-61
2023/12/28 09:58:39;;;;;;;14.27;5.88;;;;;;;-146.58;100.00;69501.63;5010198;28;20601;-62
2023/12/28 10:01:06;;;;;;;19.60;6.38;;;;;;;-146.58;100.00;69501.63;5029728;28;20057;-62
2023/12/28 10:03:31;;;;;;;16.90;5.72;;;;;;;-146.58;100.00;69501.63;5030230;28;20608;-62
2023/12/28 10:05:56;;;;;;;28.73;6.50;;;;;;;-146.58;100.00;69501.63;5028444;28;20045;-62
2023/12/28 10:08:22;;;;;;;27.23;6.68;;;;;;;-146.58;100.00;69501.63;5030600;28;20033;-62
2023/12/28 10:10:50;;;;;;;18.67;6.72;;;;;;;-146.58;100.00;69501.63;5029501;28;20500;-62
2023/12/28 10:13:16;;;;;;;;;;;;;;;-146.58;100.00;69501.63;5032955;28;20079;-62
2023/12/28 10:15:43;;;;;;;18.27;4.65;;;;;;;-146.58;100.00;69501.63;5028272;28;19920;-62
2023/12/28 10:18:08;;;;;;;16.25;6.20;;;;;;;-146.58;100.00;69501.63;5030179;28;20424;-61
2023/12/28 10:20:34;;;;;;;20.98;5.43;;;;;;;-146.58;100.00;69501.63;5026023;28;20099;-62
2023/12/28 10:23:00;;;;;;;15.57;4.55;;;;;;;-146.58;100.00;69501.63;5029689;28;20084;-59
2023/12/28 10:25:31;;;;;;;14.60;4.25;;;;;;;-146.58;100.00;69501.63;5027209;28;20044;-59
2023/12/28 10:27:56;;;;;;;14.07;4.90;;;;;;;-146.58;100.00;69501.63;5030654;28;20094;-60
2023/12/28 10:30:22;;;;;;;18.55;6.32;;;;;;;-146.58;100.00;69501.63;5028625;28;20500;-60
2023/12/28 10:32:48;;;;;;;31.95;7.10;;;;;;;-146.58;100.00;69501.63;5045943;28;20032;-60
2023/12/28 10:35:13;;;;;;;19.98;5.32;;;;;;;-146.58;100.00;69501.63;5032295;28;20052;-60
2023/12/28 10:37:43;;;;;;;19.88;6.47;;;;;;;-146.58;100.00;69501.63;5029732;28;20056;-60
2023/12/28 10:40:17;;;;;;;23.63;8.60;;;;;;;-146.58;100.00;69501.63;5027739;28;20052;-60
2023/12/28 10:42:51;;;;;;;25.17;5.20;;;;;;;-146.58;100.00;69501.63;5030442;28;20033;-60
2023/12/28 10:45:20;;;;;;;14.07;5.25;;;;;;;-146.58;100.00;69501.63;5039234;28;20072;-60
2023/12/28 10:48:08;;;;;;;13.02;4.63;;;;;;;-146.58;100.00;69501.63;5034206;28;20036;-60
2023/12/28 10:50:40;;;;;;;16.40;4.68;;;;;;;-146.58;100.00;69501.63;5028174;28;20055;-60
2023/12/28 10:53:24;;;;;;;11.55;5.35;;;;;;;-146.58;100.00;69501.63;5030323;28;20040;-61
2023/12/28 10:56:23;;;;;;;11.45;5.70;;;;;;;-146.58;100.00;69501.63;5028249;28;20034;-60
2023/12/28 10:58:53;;;;;;;18.00;4.57;;;;;;;-146.58;100.00;69501.63;5028066;28;20041;-60
2023/12/28 11:01:39;;;;;;;16.17;5.88;;;;;;;-146.58;100.00;69501.63;5032744;28;20029;-60
2023/12/28 11:04:09;;;;;;;19.50;4.43;;;;;;;-146.58;100.00;69501.63;5047997;28;20041;-60